createdAt,value
2023-04-05T00:01:33.919Z,48.01
2023-04-05T00:03:36.005Z,47.52
2023-04-05T00:05:38.586Z,47.32
2023-04-05T00:07:40.697Z,47.15
2023-04-05T00:09:42.511Z,47.50
2023-04-05T00:11:44.360Z,47.51
2023-04-05T00:13:46.322Z,47.07
2023-04-05T00:15:49.395Z,47.02
2023-04-05T00:17:51.404Z,46.96
2023-04-05T00:19:57.431Z,46.35
2023-04-05T00:21:59.882Z,45.84
2023-04-05T00:24:01.738Z,46.09
2023-04-05T00:26:03.640Z,46.54
2023-04-05T00:28:05.665Z,45.95
2023-04-05T00:30:08.389Z,46.41
2023-04-05T00:32:10.249Z,46.30
2023-04-05T00:34:12.613Z,46.02
2023-04-05T00:36:15.882Z,46.28
2023-04-05T00:38:17.815Z,46.18
2023-04-05T00:40:20.046Z,45.93
2023-04-05T00:42:21.938Z,45.73
2023-04-05T00:44:23.923Z,45.89
2023-04-05T00:46:26.942Z,46.29
2023-04-05T00:48:29.658Z,45.85
2023-04-05T00:50:31.686Z,45.65
2023-04-05T00:52:33.722Z,46.22
2023-04-05T00:54:35.831Z,46.08
2023-04-05T00:56:37.921Z,46.30
2023-04-05T00:58:42.414Z,46.54
2023-04-05T01:00:56.249Z,45.84
2023-04-05T01:03:03.304Z,45.55
2023-04-05T01:05:18.349Z,45.50
2023-04-05T01:07:28.241Z,46.15
2023-04-05T01:09:38.590Z,46.71
2023-04-05T01:11:42.822Z,46.46
2023-04-05T01:13:47.057Z,46.73
2023-04-05T01:15:48.874Z,46.23
2023-04-05T01:17:50.731Z,46.85
2023-04-05T01:20:10.703Z,47.36
2023-04-05T01:22:15.998Z,46.72
2023-04-05T01:24:25.273Z,46.88
2023-04-05T01:26:30.640Z,46.44
2023-04-05T01:28:50.984Z,46.38
2023-04-05T01:31:02.494Z,47.19
2023-04-05T01:33:07.915Z,46.36
2023-04-05T01:35:17.953Z,46.86
2023-04-05T01:37:23.123Z,46.39
2023-04-05T01:39:26.615Z,46.34
2023-04-05T01:41:29.837Z,46.88
2023-04-05T01:43:31.709Z,46.49
2023-04-05T01:45:33.977Z,46.72
2023-04-05T01:47:35.831Z,46.92
2023-04-05T01:49:37.585Z,46.90
2023-04-05T01:51:42.186Z,46.25
2023-04-05T01:53:43.903Z,47.16
2023-04-05T01:55:46.310Z,46.35
2023-04-05T01:57:48.115Z,46.66
2023-04-05T01:59:49.840Z,47.01
2023-04-05T02:01:52.139Z,46.10
2023-04-05T02:03:54.041Z,46.30
2023-04-05T02:05:56.088Z,46.56
2023-04-05T02:07:57.840Z,45.86
2023-04-05T02:09:59.534Z,45.35
2023-04-05T02:12:01.708Z,45.52
2023-04-05T02:14:04.259Z,45.19
2023-04-05T02:16:06.348Z,45.01
2023-04-05T02:18:09.559Z,45.04
2023-04-05T02:20:12.608Z,44.64
2023-04-05T02:22:14.494Z,44.75
2023-04-05T02:24:16.369Z,44.75
2023-04-05T02:26:18.316Z,45.53
2023-04-05T02:28:20.078Z,45.28
2023-04-05T02:30:21.890Z,45.35
2023-04-05T02:32:24.286Z,45.59
2023-04-05T02:34:26.141Z,45.56
2023-04-05T02:36:29.020Z,45.96
2023-04-05T02:38:30.772Z,45.40
2023-04-05T02:40:32.952Z,45.35
2023-04-05T02:42:34.708Z,45.20
2023-04-05T02:44:37.130Z,45.14
2023-04-05T02:46:38.902Z,45.30
2023-04-05T02:48:40.709Z,44.94
2023-04-05T02:50:42.712Z,44.94
2023-04-05T02:52:47.904Z,45.12
2023-04-05T02:54:49.666Z,45.56
2023-04-05T02:56:54.732Z,45.29
2023-04-05T02:58:56.469Z,45.23
2023-04-05T03:01:01.933Z,45.15
2023-04-05T03:03:06.279Z,45.77
2023-04-05T03:05:09.481Z,45.92
2023-04-05T03:07:14.523Z,45.89
2023-04-05T03:09:16.203Z,45.45
2023-04-05T03:11:17.988Z,46.41
2023-04-05T03:13:19.831Z,45.89
2023-04-05T03:15:21.677Z,46.11
2023-04-05T03:17:23.549Z,45.87
2023-04-05T03:19:26.378Z,46.23
2023-04-05T03:21:30.173Z,45.60
2023-04-05T03:23:32.464Z,46.28
2023-04-05T03:25:36.820Z,46.01
2023-04-05T03:27:38.645Z,46.06
2023-04-05T03:29:41.714Z,46.14
2023-04-05T03:31:43.861Z,46.10
2023-04-05T03:33:45.695Z,46.06
2023-04-05T03:35:48.030Z,46.42
2023-04-05T03:37:50.928Z,46.56
2023-04-05T03:39:54.961Z,46.88
2023-04-05T03:41:56.890Z,46.40
2023-04-05T03:43:58.582Z,46.64
2023-04-05T03:46:00.466Z,46.22
2023-04-05T03:48:03.321Z,46.56
2023-04-05T03:50:06.102Z,46.47
2023-04-05T03:52:08.744Z,46.53
2023-04-05T03:54:10.463Z,46.86
2023-04-05T03:56:12.404Z,46.53
2023-04-05T03:58:14.191Z,46.67
2023-04-05T04:00:17.868Z,47.09
2023-04-05T04:02:19.789Z,46.65
2023-04-05T04:04:21.516Z,47.18
2023-04-05T04:06:27.341Z,47.37
2023-04-05T04:08:32.267Z,47.16
2023-04-05T04:10:35.192Z,48.63
2023-04-05T04:12:37.614Z,48.29
2023-04-05T04:14:39.305Z,48.42
2023-04-05T04:16:41.055Z,48.09
2023-04-05T04:18:42.834Z,48.52
2023-04-05T04:20:44.558Z,49.08
2023-04-05T04:22:49.055Z,49.08
2023-04-05T04:24:50.923Z,49.05
2023-04-05T04:26:54.697Z,49.34
2023-04-05T04:28:56.775Z,48.86
2023-04-05T04:30:58.827Z,48.76
2023-04-05T04:33:06.652Z,48.77
2023-04-05T04:35:15.280Z,48.73
2023-04-05T04:37:18.087Z,48.89
2023-04-05T04:39:19.782Z,48.94
2023-04-05T04:41:22.854Z,48.81
2023-04-05T04:43:26.876Z,49.10
2023-04-05T04:45:29.089Z,48.86
2023-04-05T04:47:31.916Z,49.33
2023-04-05T04:49:33.907Z,49.32
2023-04-05T04:51:38.122Z,49.30
2023-04-05T04:53:39.857Z,49.14
2023-04-05T04:55:42.535Z,49.52
2023-04-05T04:57:44.521Z,49.30
2023-04-05T04:59:46.399Z,48.97
2023-04-05T05:01:48.188Z,49.20
2023-04-05T05:03:49.972Z,49.49
2023-04-05T05:05:53.940Z,49.24
2023-04-05T05:07:55.792Z,49.59
2023-04-05T05:09:57.594Z,49.42
2023-04-05T05:12:01.371Z,50.06
2023-04-05T05:14:03.184Z,49.36
2023-04-05T05:16:05.756Z,49.51
2023-04-05T05:18:09.076Z,49.61
2023-04-05T05:20:12.097Z,49.80
2023-04-05T05:22:13.789Z,49.42
2023-04-05T05:24:15.718Z,49.78
2023-04-05T05:26:17.424Z,50.34
2023-04-05T05:28:19.185Z,50.11
2023-04-05T05:30:21.161Z,50.27
2023-04-05T05:32:23.351Z,50.37
2023-04-05T05:34:25.267Z,50.45
2023-04-05T05:36:28.087Z,50.31
2023-04-05T05:38:29.856Z,50.11
2023-04-05T05:40:31.575Z,50.76
2023-04-05T05:42:34.219Z,50.96
2023-04-05T05:44:36.319Z,50.94
2023-04-05T05:46:40.263Z,50.47
2023-04-05T05:48:42.193Z,50.22
2023-04-05T05:50:45.159Z,50.15
2023-04-05T05:52:49.981Z,50.20
2023-04-05T05:54:52.108Z,50.64
2023-04-05T05:56:53.885Z,50.69
2023-04-05T05:58:56.075Z,50.22
2023-04-05T06:00:59.457Z,50.06
2023-04-05T06:03:02.019Z,50.44
2023-04-05T06:05:04.329Z,50.37
2023-04-05T06:07:06.101Z,50.60
2023-04-05T06:09:07.801Z,50.48
2023-04-05T06:11:17.537Z,50.63
2023-04-05T06:13:19.642Z,51.45
2023-04-05T06:15:21.528Z,51.13
2023-04-05T06:17:23.620Z,51.18
2023-04-05T06:19:25.725Z,51.04
2023-04-05T06:21:27.992Z,51.28
2023-04-05T06:23:29.853Z,51.12
2023-04-05T06:25:31.777Z,50.81
2023-04-05T06:27:33.736Z,50.54
2023-04-05T06:29:35.615Z,50.88
2023-04-05T06:31:38.062Z,50.83
2023-04-05T06:33:39.975Z,50.83
2023-04-05T06:35:41.853Z,51.18
2023-04-05T06:37:43.690Z,51.36
2023-04-05T06:39:45.564Z,50.98
2023-04-05T06:41:47.505Z,50.91
2023-04-05T06:43:49.325Z,50.89
2023-04-05T06:45:51.299Z,50.63
2023-04-05T06:47:53.382Z,51.30
2023-04-05T06:49:55.131Z,51.24
2023-04-05T06:51:56.952Z,51.07
2023-04-05T06:53:58.971Z,51.49
2023-04-05T06:56:00.918Z,52.05
2023-04-05T06:58:05.810Z,52.17
2023-04-05T07:00:11.819Z,52.17
2023-04-05T07:02:13.807Z,51.53
2023-04-05T07:04:15.980Z,51.87
2023-04-05T07:06:18.379Z,51.67
2023-04-05T07:08:21.567Z,51.82
2023-04-05T07:10:23.507Z,51.88
2023-04-05T07:12:25.630Z,51.40
2023-04-05T07:14:29.967Z,51.49
2023-04-05T07:16:32.276Z,51.51
2023-04-05T07:18:34.142Z,51.89
2023-04-05T07:20:36.256Z,51.02
2023-04-05T07:22:38.152Z,51.60
2023-04-05T07:24:40.212Z,51.34
2023-04-05T07:26:42.359Z,52.49
2023-04-05T07:28:44.351Z,52.09
2023-04-05T07:30:46.246Z,51.70
2023-04-05T07:32:48.341Z,51.96
2023-04-05T07:34:50.150Z,51.64
2023-04-05T07:36:52.551Z,52.32
2023-04-05T07:38:55.092Z,52.91
2023-04-05T07:41:00.188Z,52.71
2023-04-05T07:43:02.057Z,53.25
2023-04-05T07:45:04.910Z,53.66
2023-04-05T07:47:12.841Z,53.59
2023-04-05T07:49:15.810Z,54.10
2023-04-05T07:51:18.600Z,53.86
2023-04-05T07:53:21.051Z,53.61
2023-04-05T07:55:23.055Z,53.54
2023-04-05T07:57:24.994Z,53.28
2023-04-05T07:59:29.846Z,52.37
2023-04-05T08:01:33.589Z,52.87
2023-04-05T08:03:40.159Z,52.59
2023-04-05T08:05:42.650Z,52.68
2023-04-05T08:07:44.524Z,52.93
2023-04-05T08:09:46.913Z,52.66
2023-04-05T08:11:51.965Z,52.98
2023-04-05T08:13:54.806Z,52.52
2023-04-05T08:15:57.679Z,52.86
2023-04-05T08:17:59.723Z,53.31
2023-04-05T08:20:02.025Z,53.32
2023-04-05T08:22:03.974Z,53.03
2023-04-05T08:24:06.446Z,53.09
2023-04-05T08:26:08.602Z,53.21
2023-04-05T08:28:11.290Z,52.39
2023-04-05T08:30:13.463Z,52.47
2023-04-05T08:32:15.623Z,52.91
2023-04-05T08:34:17.763Z,51.96
2023-04-05T08:36:19.858Z,51.60
2023-04-05T08:38:21.845Z,52.00
2023-04-05T08:40:37.482Z,51.71
2023-04-05T08:42:53.299Z,51.28
2023-04-05T08:44:57.922Z,51.78
2023-04-05T08:47:07.207Z,51.68
2023-04-05T08:49:09.413Z,51.89
2023-04-05T08:51:11.347Z,50.70
2023-04-05T08:53:13.273Z,51.10
2023-04-05T08:55:15.934Z,50.83
2023-04-05T08:57:19.354Z,50.91
2023-04-05T08:59:22.094Z,51.24
2023-04-05T09:01:35.560Z,51.20
2023-04-05T09:03:41.015Z,51.37
2023-04-05T09:05:46.873Z,51.58
2023-04-05T09:07:49.423Z,51.33
2023-04-05T09:09:53.929Z,51.65
2023-04-05T09:11:57.654Z,51.01
2023-04-05T09:13:59.793Z,50.83
2023-04-05T09:16:03.209Z,51.60
2023-04-05T09:18:12.427Z,51.08
2023-04-05T09:20:21.435Z,51.45
2023-04-05T09:22:23.273Z,51.91
2023-04-05T09:24:33.549Z,51.57
2023-04-05T09:26:35.541Z,51.30
2023-04-05T09:28:43.517Z,51.72
2023-04-05T09:30:47.896Z,52.10
2023-04-05T09:32:53.255Z,52.56
2023-04-05T09:34:55.592Z,51.90
2023-04-05T09:37:01.675Z,52.04
2023-04-05T09:39:06.964Z,52.06
2023-04-05T09:41:13.665Z,51.57
2023-04-05T09:43:35.013Z,51.12
2023-04-05T09:45:50.073Z,51.63
2023-04-05T09:47:57.554Z,50.62
2023-04-05T09:50:01.081Z,50.43
2023-04-05T09:52:03.161Z,50.79
2023-04-05T09:54:08.832Z,50.84
2023-04-05T09:56:11.940Z,50.26
2023-04-05T09:58:19.811Z,49.97
2023-04-05T10:00:23.526Z,49.75
2023-04-05T10:02:40.843Z,49.21
2023-04-05T10:04:45.538Z,49.24
2023-04-05T10:06:47.974Z,48.90
2023-04-05T10:08:51.446Z,48.23
2023-04-05T10:11:06.530Z,47.68
2023-04-05T10:13:09.071Z,47.01
2023-04-05T10:15:12.352Z,47.38
2023-04-05T10:17:28.065Z,46.52
2023-04-05T10:19:46.945Z,46.17
2023-04-05T10:21:51.485Z,45.90
2023-04-05T10:24:09.385Z,45.96
2023-04-05T10:26:25.917Z,45.66
2023-04-05T10:28:37.698Z,45.26
2023-04-05T10:30:44.852Z,46.01
2023-04-05T10:32:57.299Z,44.96
2023-04-05T10:35:14.579Z,43.33
2023-04-05T10:37:36.991Z,43.67
2023-04-05T10:39:47.102Z,44.00
2023-04-05T10:41:53.907Z,43.95
2023-04-05T10:43:57.959Z,43.25
2023-04-05T10:46:02.169Z,42.82
2023-04-05T10:48:19.152Z,41.99
2023-04-05T10:50:24.247Z,41.24
2023-04-05T10:52:27.651Z,41.73
2023-04-05T10:54:39.087Z,41.72
2023-04-05T10:56:41.495Z,41.76
2023-04-05T10:58:45.587Z,40.27
2023-04-05T11:00:49.685Z,39.15
2023-04-05T11:02:56.663Z,39.81
2023-04-05T11:05:05.283Z,39.75
2023-04-05T11:07:11.487Z,39.99
2023-04-05T11:09:22.948Z,40.93
2023-04-05T11:11:27.607Z,41.31
2023-04-05T11:13:53.850Z,41.45
2023-04-05T11:16:14.884Z,41.23
2023-04-05T11:18:17.169Z,40.52
2023-04-05T11:20:19.228Z,40.08
2023-04-05T11:22:30.333Z,39.90
2023-04-05T11:24:53.849Z,39.84
2023-04-05T11:26:57.759Z,39.04
2023-04-05T11:28:59.880Z,39.79
2023-04-05T11:31:16.915Z,38.67
2023-04-05T11:33:37.882Z,38.52
2023-04-05T11:35:39.810Z,38.56
2023-04-05T11:37:55.518Z,38.73
2023-04-05T11:40:37.176Z,39.00
2023-04-05T11:42:39.252Z,38.80
2023-04-05T11:44:48.452Z,39.09
2023-04-05T11:46:52.335Z,39.46
2023-04-05T11:48:57.358Z,38.99
2023-04-05T11:51:08.615Z,39.20
2023-04-05T11:53:15.961Z,39.09
2023-04-05T11:55:27.028Z,38.98
2023-04-05T11:57:29.213Z,39.63
2023-04-05T11:59:33.377Z,36.81
2023-04-05T12:01:35.323Z,36.28
2023-04-05T12:03:41.758Z,35.81
2023-04-05T12:05:53.510Z,37.32
2023-04-05T12:07:55.987Z,37.95
2023-04-05T12:09:59.275Z,36.04
2023-04-05T12:12:01.358Z,33.46
2023-04-05T12:14:04.030Z,34.07
2023-04-05T12:16:08.090Z,34.98
2023-04-05T12:18:19.127Z,35.46
2023-04-05T12:20:24.823Z,35.70
2023-04-05T12:22:26.873Z,35.15
2023-04-05T12:24:29.080Z,33.90
2023-04-05T12:26:34.411Z,33.78
2023-04-05T12:28:53.831Z,34.96
2023-04-05T12:30:59.093Z,36.86
2023-04-05T12:33:11.012Z,36.52
2023-04-05T12:35:18.201Z,35.51
2023-04-05T12:37:20.568Z,36.07
2023-04-05T12:39:31.755Z,34.69
2023-04-05T12:41:34.210Z,34.22
2023-04-05T12:43:41.119Z,35.22
2023-04-05T12:45:44.776Z,35.22
2023-04-05T12:47:51.078Z,34.85
2023-04-05T12:49:55.613Z,34.47
2023-04-05T12:52:03.173Z,33.77
2023-04-05T12:54:05.157Z,33.89
2023-04-05T12:56:07.532Z,33.42
2023-04-05T12:58:10.589Z,33.94
2023-04-05T13:00:16.295Z,34.16
2023-04-05T13:02:18.409Z,35.06
2023-04-05T13:04:20.912Z,35.22
2023-04-05T13:06:22.974Z,34.95
2023-04-05T13:08:27.239Z,35.83
2023-04-05T13:10:29.469Z,36.09
2023-04-05T13:12:31.331Z,36.03
2023-04-05T13:14:33.215Z,36.19
2023-04-05T13:16:35.259Z,36.27
2023-04-05T13:18:39.755Z,36.27
2023-04-05T13:20:43.336Z,36.51
2023-04-05T13:22:46.268Z,36.68
2023-04-05T13:24:48.153Z,36.57
2023-04-05T13:26:50.344Z,36.66
2023-04-05T13:28:52.424Z,36.47
2023-04-05T13:30:54.694Z,36.89
2023-04-05T13:32:56.963Z,36.78
2023-04-05T13:34:58.960Z,36.36
2023-04-05T13:37:01.298Z,37.03
2023-04-05T13:39:04.230Z,36.50
2023-04-05T13:41:21.817Z,36.84
2023-04-05T13:43:28.169Z,36.16
2023-04-05T13:45:31.620Z,36.49
2023-04-05T13:47:35.592Z,36.53
2023-04-05T13:49:37.581Z,35.96
2023-04-05T13:51:41.726Z,35.72
2023-04-05T13:53:43.650Z,36.00
2023-04-05T13:55:46.352Z,35.72
2023-04-05T13:57:48.256Z,36.25
2023-04-05T13:59:53.410Z,36.14
2023-04-05T14:01:55.710Z,35.47
2023-04-05T14:03:58.063Z,36.46
2023-04-05T14:05:59.954Z,36.45
2023-04-05T14:08:01.951Z,35.77
2023-04-05T14:10:04.943Z,35.56
2023-04-05T14:12:14.045Z,35.36
2023-04-05T14:14:18.951Z,35.34
2023-04-05T14:16:21.044Z,35.75
2023-04-05T14:18:28.945Z,35.32
2023-04-05T14:20:30.914Z,35.71
2023-04-05T14:22:32.848Z,35.67
2023-04-05T14:24:35.267Z,36.13
2023-04-05T14:26:37.786Z,36.44
2023-04-05T14:28:39.713Z,36.67
2023-04-05T14:30:42.123Z,36.94
2023-04-05T14:32:45.434Z,37.70
2023-04-05T14:34:47.372Z,37.35
2023-04-05T14:36:50.149Z,37.51
2023-04-05T14:38:52.172Z,36.74
2023-04-05T14:40:54.141Z,36.76
2023-04-05T14:42:57.063Z,36.56
2023-04-05T14:44:58.943Z,36.91
2023-04-05T14:47:01.304Z,36.71
2023-04-05T14:49:03.670Z,36.94
2023-04-05T14:51:18.533Z,36.91
2023-04-05T14:53:24.296Z,37.57
2023-04-05T14:55:48.296Z,37.94
2023-04-05T14:57:50.689Z,38.00
2023-04-05T15:00:00.037Z,37.92
2023-04-05T15:02:05.480Z,37.91
2023-04-05T15:04:09.297Z,38.26
2023-04-05T15:06:11.871Z,38.43
2023-04-05T15:08:14.450Z,38.10
2023-04-05T15:10:25.423Z,38.44
2023-04-05T15:12:31.623Z,39.03
2023-04-05T15:14:33.914Z,39.03
2023-04-05T15:16:46.280Z,39.30
2023-04-05T15:18:48.460Z,39.53
2023-04-05T15:20:51.436Z,39.07
2023-04-05T15:22:54.050Z,39.39
2023-04-05T15:24:56.383Z,39.18
2023-04-05T15:27:02.557Z,40.28
2023-04-05T15:29:04.711Z,40.02
2023-04-05T15:31:13.715Z,40.55
2023-04-05T15:33:17.838Z,40.59
2023-04-05T15:35:30.985Z,40.86
2023-04-05T15:37:40.248Z,42.16
2023-04-05T15:39:44.938Z,43.33
2023-04-05T15:41:51.585Z,43.89
2023-04-05T15:44:03.978Z,44.43
2023-04-05T15:46:06.336Z,44.50
2023-04-05T15:48:11.099Z,44.21
2023-04-05T15:50:15.949Z,45.09
2023-04-05T15:52:34.375Z,45.65
2023-04-05T15:54:38.248Z,46.34
2023-04-05T15:56:44.726Z,47.59
2023-04-05T15:58:47.153Z,47.71
2023-04-05T16:00:50.157Z,47.52
2023-04-05T16:02:57.406Z,47.20
2023-04-05T16:05:32.157Z,46.03
2023-04-05T16:07:34.281Z,47.88
2023-04-05T16:09:41.114Z,48.94
2023-04-05T16:12:32.629Z,48.25
2023-04-05T16:14:35.291Z,49.46
2023-04-05T16:16:45.929Z,48.91
2023-04-05T16:19:00.347Z,48.99
2023-04-05T16:21:13.479Z,49.57
2023-04-05T16:23:32.335Z,48.22
2023-04-05T16:25:34.470Z,48.73
2023-04-05T16:27:43.286Z,48.42
2023-04-05T16:29:45.444Z,48.87
2023-04-05T16:32:01.322Z,47.43
2023-04-05T16:34:15.196Z,47.27
2023-04-05T16:36:17.975Z,47.93
2023-04-05T16:38:23.096Z,48.14
2023-04-05T16:40:25.658Z,47.75
2023-04-05T16:42:27.802Z,47.89
2023-04-05T16:44:32.239Z,48.32
2023-04-05T16:46:34.849Z,49.01
2023-04-05T16:48:37.090Z,48.94
2023-04-05T16:50:45.958Z,48.29
2023-04-05T16:52:48.981Z,48.45
2023-04-05T16:54:51.424Z,48.61
2023-04-05T16:56:54.319Z,48.78
2023-04-05T16:58:57.809Z,48.73
2023-04-05T17:01:14.954Z,48.75
2023-04-05T17:03:18.867Z,49.24
2023-04-05T17:05:21.184Z,49.56
2023-04-05T17:07:24.046Z,49.89
2023-04-05T17:09:30.123Z,49.88
2023-04-05T17:11:36.357Z,49.73
2023-04-05T17:13:38.861Z,50.18
2023-04-05T17:15:41.099Z,50.83
2023-04-05T17:17:44.913Z,51.43
2023-04-05T17:19:47.891Z,51.01
2023-04-05T17:21:50.297Z,50.92
2023-04-05T17:23:52.497Z,50.99
2023-04-05T17:25:57.153Z,51.15
2023-04-05T17:27:59.224Z,51.75
2023-04-05T17:30:02.008Z,51.44
2023-04-05T17:32:04.010Z,51.78
2023-04-05T17:34:12.839Z,51.59
2023-04-05T17:36:15.573Z,51.97
2023-04-05T17:38:17.673Z,52.31
2023-04-05T17:40:19.812Z,53.22
2023-04-05T17:42:22.017Z,52.76
2023-04-05T17:44:24.078Z,53.72
2023-04-05T17:46:39.650Z,53.85
2023-04-05T17:48:46.895Z,54.66
2023-04-05T17:50:49.239Z,56.05
2023-04-05T17:52:51.275Z,57.38
2023-04-05T17:54:54.559Z,57.51
2023-04-05T17:56:56.710Z,57.93
2023-04-05T17:59:04.562Z,57.63
2023-04-05T18:01:12.257Z,57.70
2023-04-05T18:03:20.381Z,56.56
2023-04-05T18:05:22.984Z,56.34
2023-04-05T18:07:25.058Z,56.80
2023-04-05T18:09:30.045Z,57.81
2023-04-05T18:11:32.225Z,58.71
2023-04-05T18:13:34.191Z,59.05
2023-04-05T18:15:36.256Z,58.29
2023-04-05T18:17:38.618Z,58.75
2023-04-05T18:19:41.364Z,58.27
2023-04-05T18:21:43.666Z,58.53
2023-04-05T18:23:45.498Z,58.67
2023-04-05T18:25:47.890Z,59.64
2023-04-05T18:27:49.917Z,60.01
2023-04-05T18:29:51.931Z,60.23
2023-04-05T18:31:54.371Z,60.60
2023-04-05T18:33:56.523Z,60.72
2023-04-05T18:35:58.433Z,60.38
2023-04-05T18:38:00.710Z,60.73
2023-04-05T18:40:04.018Z,61.23
2023-04-05T18:42:06.025Z,61.43
2023-04-05T18:44:09.336Z,61.43
2023-04-05T18:46:18.391Z,62.28
2023-04-05T18:48:20.889Z,62.64
2023-04-05T18:50:22.716Z,61.62
2023-04-05T18:52:26.332Z,61.38
2023-04-05T18:54:28.290Z,62.02
2023-04-05T18:56:30.450Z,61.91
2023-04-05T18:58:32.511Z,61.94
2023-04-05T19:00:35.127Z,62.04
2023-04-05T19:02:37.348Z,63.14
2023-04-05T19:04:39.197Z,63.33
2023-04-05T19:06:41.028Z,62.65
2023-04-05T19:08:43.210Z,62.67
2023-04-05T19:10:45.091Z,62.60
2023-04-05T19:12:46.899Z,62.85
2023-04-05T19:14:48.775Z,62.38
2023-04-05T19:16:50.828Z,63.01
2023-04-05T19:18:53.696Z,63.48
2023-04-05T19:20:57.364Z,63.21
2023-04-05T19:22:59.322Z,63.47
2023-04-05T19:25:01.407Z,64.40
2023-04-05T19:27:03.371Z,64.46
2023-04-05T19:29:06.174Z,63.77
2023-04-05T19:31:10.475Z,64.24
2023-04-05T19:33:13.427Z,65.05
2023-04-05T19:35:15.785Z,64.02
2023-04-05T19:37:18.163Z,64.25
2023-04-05T19:39:25.610Z,64.36
2023-04-05T19:41:32.684Z,64.80
2023-04-05T19:43:36.833Z,64.80
2023-04-05T19:45:38.921Z,65.63
2023-04-05T19:47:47.005Z,65.67
2023-04-05T19:49:49.870Z,65.83
2023-04-05T19:51:55.153Z,66.55
2023-04-05T19:53:59.580Z,66.16
2023-04-05T19:56:01.612Z,66.35
2023-04-05T19:58:08.484Z,66.27
2023-04-05T20:00:29.877Z,66.73
2023-04-05T20:02:36.929Z,67.43
2023-04-05T20:04:39.800Z,67.68
2023-04-05T20:06:43.104Z,67.08
2023-04-05T20:08:46.949Z,67.33
2023-04-05T20:10:52.269Z,67.07
2023-04-05T20:12:59.651Z,67.91
2023-04-05T20:15:04.664Z,68.33
2023-04-05T20:17:07.350Z,68.21
2023-04-05T20:19:11.127Z,68.63
2023-04-05T20:21:13.950Z,68.74
2023-04-05T20:23:20.131Z,69.80
2023-04-05T20:25:40.870Z,69.03
2023-04-05T20:27:42.962Z,69.95
2023-04-05T20:29:46.123Z,69.83
2023-04-05T20:31:48.176Z,71.64
2023-04-05T20:33:55.209Z,71.46
2023-04-05T20:35:57.046Z,71.20
2023-04-05T20:37:58.973Z,70.66
2023-04-05T20:40:01.147Z,70.80
2023-04-05T20:42:03.970Z,71.62
2023-04-05T20:44:05.988Z,71.65
2023-04-05T20:46:08.447Z,71.80
2023-04-05T20:48:11.237Z,71.91
2023-04-05T20:50:13.290Z,71.40
2023-04-05T20:52:15.812Z,71.42
2023-04-05T20:54:18.196Z,71.13
2023-04-05T20:56:20.162Z,70.77
2023-04-05T20:58:22.898Z,70.45
2023-04-05T21:00:24.755Z,71.37
2023-04-05T21:02:26.789Z,71.05
2023-04-05T21:04:30.109Z,70.26
2023-04-05T21:06:32.386Z,71.21
2023-04-05T21:08:35.079Z,70.43
2023-04-05T21:10:37.157Z,71.40
2023-04-05T21:12:39.175Z,71.05
2023-04-05T21:14:41.120Z,71.51
2023-04-05T21:16:43.071Z,71.74
2023-04-05T21:18:45.076Z,70.84
2023-04-05T21:20:51.113Z,70.96
2023-04-05T21:22:52.966Z,70.78
2023-04-05T21:24:54.843Z,71.34
2023-04-05T21:26:56.939Z,70.79
2023-04-05T21:28:58.800Z,71.36
2023-04-05T21:31:00.742Z,71.19
2023-04-05T21:33:02.780Z,71.80
2023-04-05T21:35:05.072Z,71.43
2023-04-05T21:37:07.073Z,71.89
2023-04-05T21:39:09.019Z,71.11
2023-04-05T21:41:11.113Z,71.03
2023-04-05T21:43:15.635Z,71.83
2023-04-05T21:45:17.608Z,72.29
2023-04-05T21:47:19.807Z,72.17
2023-04-05T21:49:21.810Z,72.18
2023-04-05T21:51:23.698Z,71.65
2023-04-05T21:53:25.680Z,72.72
2023-04-05T21:55:27.489Z,73.22
2023-04-05T21:57:29.450Z,72.50
2023-04-05T21:59:31.377Z,72.77
2023-04-05T22:01:36.075Z,73.53
2023-04-05T22:03:37.999Z,72.91
2023-04-05T22:05:39.898Z,74.02
2023-04-05T22:07:42.118Z,72.97
2023-04-05T22:09:44.117Z,73.00
2023-04-05T22:11:46.196Z,72.93
2023-04-05T22:13:48.125Z,72.88
2023-04-05T22:15:50.085Z,73.39
2023-04-05T22:17:52.040Z,73.81
2023-04-05T22:19:53.911Z,74.09
2023-04-05T22:21:55.981Z,73.26
2023-04-05T22:23:58.087Z,74.27
2023-04-05T22:26:00.182Z,72.91
2023-04-05T22:28:02.141Z,72.95
2023-04-05T22:30:05.500Z,73.10
2023-04-05T22:32:07.679Z,73.90
2023-04-05T22:34:09.712Z,73.32
2023-04-05T22:36:11.686Z,74.24
2023-04-05T22:38:13.592Z,74.79
2023-04-05T22:40:15.387Z,73.95
2023-04-05T22:42:17.210Z,74.74
2023-04-05T22:44:18.966Z,74.22
2023-04-05T22:46:20.847Z,74.44
2023-04-05T22:48:22.832Z,75.34
2023-04-05T22:50:24.637Z,74.48
2023-04-05T22:52:26.654Z,75.43
2023-04-05T22:54:28.440Z,74.49
2023-04-05T22:56:31.642Z,75.37
2023-04-05T22:58:33.443Z,75.18
2023-04-05T23:00:41.316Z,75.74
2023-04-05T23:02:43.473Z,75.88
2023-04-05T23:04:45.374Z,76.11
2023-04-05T23:06:47.140Z,75.74
2023-04-05T23:08:49.004Z,75.69
2023-04-05T23:10:50.880Z,74.72
2023-04-05T23:12:52.926Z,75.43
2023-04-05T23:14:54.737Z,75.16
2023-04-05T23:16:56.596Z,74.95
2023-04-05T23:18:58.373Z,75.01
2023-04-05T23:21:00.183Z,74.58
2023-04-05T23:23:02.174Z,75.34
2023-04-05T23:25:05.789Z,75.52
2023-04-05T23:27:07.612Z,75.28
2023-04-05T23:29:09.582Z,75.34
2023-04-05T23:31:13.874Z,75.41
2023-04-05T23:33:16.297Z,76.10
2023-04-05T23:35:18.249Z,75.99
2023-04-05T23:37:20.146Z,76.59
2023-04-05T23:39:21.972Z,76.36
2023-04-05T23:41:23.836Z,76.42
2023-04-05T23:43:26.030Z,76.95
2023-04-05T23:45:28.225Z,76.72
2023-04-05T23:47:30.189Z,78.13
2023-04-05T23:49:32.161Z,77.69
2023-04-05T23:51:33.939Z,77.78
2023-04-05T23:53:35.892Z,77.27
2023-04-05T23:55:41.976Z,78.00
2023-04-05T23:57:44.065Z,77.47
2023-04-05T23:59:46.220Z,77.98
